New Salem, PA (15468)

7:26 AM EST on January 25, 2015 (GMT -0500)
Dunbar | Change Station
CLOSE
Current Station
Personal Weather Station
Location: Dunbar, PA
Elevation: 1056 ft
Nearby Weather Stations
Active Advisory: Winter Weather Advisory

Elev 1056 ft 40.00 °N, 79.69 °W | Updated 51 seconds ago

Overcast
Overcast
32.9 °F
Feels Like 30 °F
N
3.1
Wind Variable Wind from South
Gusts 4.5 mph

Today
High -- | Low -- °F
--% Chance of Precip.
Yesterday
High -- | Low -- °F
Precip. -- in
7:33 AM 5:29 PM
Waxing Crescent, 32% visible
Pressure 29.82 in
Visibility 6.0 miles
Clouds Overcast 3300 ft
Windchill 30 °F
Dew Point 32 °F
Humidity 96%
Rainfall 0.00 in
Snow Depth Not available.
UV 0 out of 12
Pollen .10 out of 12
Air Quality Not available.
Flu Activity Not available.
METAR KMGW 251153Z 21006KT 6SM HZ OVC033 01/M02 A2978 RMK AO2 SLP096 70001 I6000 T00061022 10006 20000 55001

More Conditions Fewer Conditions

Pressure 29.82 in
Visibility 6.0 miles
Clouds Overcast 3300 ft
Windchill 30 °F
Dew Point 32 °F
Humidity 96%
Rainfall 0.00 in
Snow Depth Not available.
UV 0 out of 12
Pollen .10 out of 12
Air Quality Not available.
Flu Activity Not available.
METAR KMGW 251153Z 21006KT 6SM HZ OVC033 01/M02 A2978 RMK AO2 SLP096 70001 I6000 T00061022 10006 20000 55001

More Conditions Fewer Conditions

10-Day Weather Forecast

Almanac

Astronomy

Jan. 25, 2015 Rise Set
Actual Time
Civil Twilight
Nautical Twilight
Astronomical Twilight
Moon
Length of Visible Light
Length of Day
Tomorrow will be .
, % of the Moon is Illuminated

Today's Extremes

State Highs State Lows

Community

WunderPhotos

Upload Photos

1,789,873 photos uploaded!

WunderBlogs® & News

Nearby

Air Quality

  Air Quality AQ Index Pollutant
Not available.

Snow Depth

Station Depth Elevation

Earthquake Activity

City Distance Mag. Time & Date
Minimum magnitude displayed is 2.5.

Coastal Water Temperatures

Place Temperature

Nearby Weather Stations